Startpagina
METAR-TAF:

METAR-TAF

Vliegvelden :

Vliegbasis Bevekom

Bevekom, België

breedte: 50-45N, lengte: 004-46E, hoogte: 105 m

Actueel weer

Dit bericht is 41 minuten geleden gemaakt, om 07:25 UTC
Wind 2 kt uit variabele richting
Temperatuur 9°C
Vochtigheid 76%
Druk 1022 hPa
Zicht 10 km of meer
Verspreide wolken op 8000 ft
Gebroken wolken op 25000 ft

METAR: EBBE 180725Z VRB02KT 9999 SCT080 BKN250 09/05 Q1022 BLU BLU

Tijdstip: 10:06 (08:06 UTC)

Verwachting

Dit bericht is 2 uur en het 25 minuten geleden gemaakt, om 05:41 UTC
Verwachting geldig van 18 om 07 UTC tot 18 om 16 UTC
Wind 5 kt uit het zuiden
Zicht: 8000 m
Verspreide wolken op 6000 ft
Wijzigt naar
van 18 om 12 UTC tot 18 om 14 UTC
Wind 10 kt uit het zuidzuidwesten met uitschieters tot 20 kt
Zicht 10 km of meer
Verspreide wolken op 4000 ft

TAF: EBBE 180541Z 1807/1816 18005KT 8000 SCT060 BECMG 1812/1814 21010G20KT 9999 SCT040

Waarnemingen en weersverwachtingen van meer dan 4000 vliegvelden (METAR en TAF).

De beschikbare stations zijn de gele en rode punten op de kaart.

Ga met uw muis naar het station om de naam te zien.

Klik dan om waarnemingen en weersverwachtingen te zien.

kaart wijzigen: klik op de groene knoppen met een zwart kruis om in te zoomen, op de groene knop met een streepje om uit te zoomen of op de groene pijlen voor aangrenzende kaarten.


METAR-TAF: